Aguirre, PR

4:10 PM AST en Septiembre 21, 2014 (GMT -0400)
Manejo de Emergencias | Change Station
CLOSE
Current Station
Estación meteorológica personal
Location: Salinas, PR
Altura: 15 ft
Estaciones meteorológicas cercanas

Alt 15 ft 17.98 °N, 66.30 °W | Updated 1 minute ago

Scattered Clouds
Nubes dispersas
88.5 ° F
Sensación térmica 102 ° F
N
0.0
Viento Variable Viento desde Oeste
Gusts 7.0 mph

Hoy
Alta -- | Baja -- ° F
--% Posibilidad de precipitaciones
Ayer
Alta -- | Baja -- ° F
Precip. -- pul
6:13 AM 6:21 PM
Creciente menguante, 5% visible
Presión 29.98 pul
Visibilidad 10.0 Millas
Nubes Nubes dispersas 3000 ft
Nubes dispersas 13000 ft
Índice de calor 102 ° F
Punto de rocío 78 ° F
Humedad 70%
Precipitaciones -999.00 pul
Espesor de la nieve No disponible.
UV 3 de una escala de 12
Polen No disponible.
Calidad del aire No disponible.
Flu Activity No disponible.
METAR TJSJ 211956Z 07011KT 10SM SCT030 SCT130 30/25 A2998 RMK AO2 SLP150 T03000250 $

More Conditions Fewer Conditions

Presión 29.98 pul
Visibilidad 10.0 Millas
Nubes Nubes dispersas 3000 ft
Nubes dispersas 13000 ft
Índice de calor 102 ° F
Punto de rocío 78 ° F
Humedad 70%
Precipitaciones -999.00 pul
Espesor de la nieve No disponible.
UV 3 de una escala de 12
Polen No disponible.
Calidad del aire No disponible.
Flu Activity No disponible.
METAR TJSJ 211956Z 07011KT 10SM SCT030 SCT130 30/25 A2998 RMK AO2 SLP150 T03000250 $

More Conditions Fewer Conditions

10-Day Weather Forecast

Almanac

Astronomía

Sep. 21, 2014 Salida Puesta
Hora real 6:13 AM AST 6:21 PM AST
Crepúsculo civil 5:51 AM AST 6:43 PM AST
Crepúsculo náutico 5:26 AM AST 7:08 PM AST
Crepúsculo astronómico 5:01 AM AST 7:34 PM AST
Luna 4:00 AM AST 4:42 PM AST
Horas de luz 12h 51m
Horas de luz
12h 08m
Tomorrow will be 1m 0s shorter.
Creciente menguante, 5% of the Moon is Illuminated
Hoy
Creciente menguante
Sep 24
Nueva
Oct 1
Cuarto creciente
Oct 8
Luna llena
Oct 15
Cuarto menguante

Community

WunderPhotos

Upload Photos

1,755,243 ¡fotos cargadas!

Nearby

Calidad del aire

Not available.

Grosos de nieve

Estación Profundido Altura
No tenemos constancia de nieve nueva.

Actividad de terremotos

Ciudad Distance Mag. Tiempo y dato
No hay informes recientes de la actividad sísmica.
Magnitud mínima muestra es 2,5.

Temperaturas de aguas costeras

Lugar Temperatura
Magueyes Islands, PR 84.9 ° F
Yabucoa Harbor, PR 86.0 ° F

Estaciones meteorológicas cercanas